Plum Creek, South Dakota
Current Conditions -  °F | °C
As of 8:52 PM on Sunday 23 Nov 2014 (Local Time) from KRAP Reporting Station
Clear Clear  
Wind Chill: 23°   Ceiling: Unl
Heat Index: 35°   Visibility: 10mi
Dew Point: 20°   Wind: 24mph
Humidity: 54%   Direction: 330°NNW
Pressure: 29.71"   Gusts: 39mph
Location:  44.1288°N, 101.804°W
Report Text: KRAP 240352Z 33021G34KT 10SM CLR 02/M07 A2971 RMK AO2 PK WND 33036/0325 SLP077 T00171067 PNO $
Loading
Personal Weather Stations






























Interactive Weather Map New forecast layout! Learn more

10-Day Weather Forecast

Advertisements
Track Severe Weather on mobile